createdAt,value
2019-05-07T00:00:53.095Z,8.13
2019-05-07T00:01:55.002Z,8.08
2019-05-07T00:03:46.573Z,8.19
2019-05-07T00:04:46.559Z,8.16
2019-05-07T00:06:43.295Z,8.13
2019-05-07T00:07:42.508Z,8.20
2019-05-07T00:09:35.291Z,8.30
2019-05-07T00:10:35.268Z,8.20
2019-05-07T00:12:29.675Z,8.19
2019-05-07T00:13:29.621Z,8.33
2019-05-07T00:15:23.985Z,8.36
2019-05-07T00:16:23.970Z,8.34
2019-05-07T00:18:18.368Z,8.34
2019-05-07T00:19:18.324Z,8.36
2019-05-07T00:21:12.775Z,8.37
2019-05-07T00:22:12.717Z,8.42
2019-05-07T00:24:07.068Z,8.48
2019-05-07T00:25:07.015Z,8.37
2019-05-07T00:27:02.833Z,8.55
2019-05-07T00:28:02.737Z,8.51
2019-05-07T00:29:55.763Z,8.45
2019-05-07T00:30:55.719Z,8.46
2019-05-07T00:32:50.086Z,8.51
2019-05-07T00:33:52.512Z,8.51
2019-05-07T00:35:44.470Z,8.37
2019-05-07T00:36:44.430Z,8.42
2019-05-07T00:38:43.024Z,8.38
2019-05-07T00:39:43.012Z,8.44
2019-05-07T00:41:42.742Z,8.48
2019-05-07T00:42:42.185Z,8.55
2019-05-07T00:44:36.417Z,8.52
2019-05-07T00:45:36.403Z,8.49
2019-05-07T00:47:33.021Z,8.53
2019-05-07T00:48:32.636Z,8.38
2019-05-07T00:50:25.185Z,8.36
2019-05-07T00:51:25.131Z,8.41
2019-05-07T00:53:19.559Z,8.49
2019-05-07T00:54:19.487Z,8.46
2019-05-07T00:56:13.847Z,8.55
2019-05-07T00:57:13.844Z,8.55
2019-05-07T00:59:08.206Z,8.53
2019-05-07T01:00:08.190Z,8.51
2019-05-07T01:02:02.548Z,8.55
2019-05-07T01:03:03.135Z,8.48
2019-05-07T01:04:56.947Z,8.46
2019-05-07T01:05:56.899Z,8.48
2019-05-07T01:07:52.912Z,8.49
2019-05-07T01:08:52.510Z,8.37
2019-05-07T01:10:45.681Z,8.36
2019-05-07T01:11:45.642Z,8.37
2019-05-07T01:13:40.033Z,8.41
2019-05-07T01:14:41.882Z,8.36
2019-05-07T01:16:34.397Z,8.30
2019-05-07T01:17:34.360Z,8.19
2019-05-07T01:19:28.734Z,8.28
2019-05-07T01:20:28.718Z,8.33
2019-05-07T01:22:23.104Z,8.36
2019-05-07T01:23:23.213Z,8.36
2019-05-07T01:25:17.412Z,8.44
2019-05-07T01:26:17.400Z,8.34
2019-05-07T01:28:13.022Z,8.49
2019-05-07T01:29:12.505Z,8.48
2019-05-07T01:31:05.137Z,8.52
2019-05-07T01:32:05.137Z,8.48
2019-05-07T01:33:59.518Z,8.53
2019-05-07T01:34:59.467Z,8.55
2019-05-07T01:36:53.840Z,8.56
2019-05-07T01:37:53.853Z,8.49
2019-05-07T01:39:48.211Z,8.42
2019-05-07T01:40:48.167Z,8.56
2019-05-07T01:42:42.530Z,8.55
2019-05-07T01:43:43.034Z,8.58
2019-05-07T01:45:48.167Z,8.64
2019-05-07T01:46:36.868Z,8.70
2019-05-07T01:48:32.361Z,8.74
2019-05-07T01:49:32.999Z,8.71
2019-05-07T01:51:25.704Z,8.76
2019-05-07T01:52:25.560Z,8.61
2019-05-07T01:54:23.501Z,8.58
2019-05-07T01:55:19.938Z,8.66
2019-05-07T01:57:14.283Z,8.56
2019-05-07T01:58:14.265Z,8.70
2019-05-07T02:00:08.637Z,8.66
2019-05-07T02:01:08.623Z,8.66
2019-05-07T02:03:02.972Z,8.73
2019-05-07T02:04:02.975Z,8.70
2019-05-07T02:05:57.325Z,8.66
2019-05-07T02:06:57.311Z,8.74
2019-05-07T02:08:53.065Z,8.69
2019-05-07T02:09:51.944Z,8.55
2019-05-07T02:11:46.059Z,8.61
2019-05-07T02:12:46.013Z,8.48
2019-05-07T02:14:42.209Z,8.56
2019-05-07T02:15:40.363Z,8.52
2019-05-07T02:17:34.766Z,8.51
2019-05-07T02:18:34.717Z,8.58
2019-05-07T02:20:29.112Z,8.48
2019-05-07T02:21:29.061Z,8.48
2019-05-07T02:23:23.433Z,8.48
2019-05-07T02:24:23.419Z,8.52
2019-05-07T02:26:17.815Z,8.55
2019-05-07T02:27:17.769Z,8.53
2019-05-07T02:29:12.343Z,8.55
2019-05-07T02:30:14.699Z,8.55
2019-05-07T02:32:06.525Z,8.61
2019-05-07T02:33:06.473Z,8.48
2019-05-07T02:35:04.038Z,8.46
2019-05-07T02:36:03.116Z,8.52
2019-05-07T02:37:56.793Z,8.52
2019-05-07T02:38:55.174Z,8.55
2019-05-07T02:40:49.575Z,8.60
2019-05-07T02:41:49.528Z,8.61
2019-05-07T02:43:43.888Z,8.66
2019-05-07T02:44:43.982Z,8.69
2019-05-07T02:46:38.279Z,8.71
2019-05-07T02:47:38.235Z,8.64
2019-05-07T02:49:32.968Z,8.67
2019-05-07T02:50:33.114Z,8.71
2019-05-07T02:52:27.008Z,8.74
2019-05-07T02:53:26.947Z,8.73
2019-05-07T02:55:23.257Z,8.71
2019-05-07T02:56:23.608Z,8.73
2019-05-07T02:58:15.686Z,8.76
2019-05-07T02:59:15.625Z,8.71
2019-05-07T03:01:13.434Z,8.73
2019-05-07T03:02:09.976Z,8.58
2019-05-07T03:04:04.375Z,8.52
2019-05-07T03:05:05.127Z,8.58
2019-05-07T03:06:58.728Z,8.58
2019-05-07T03:07:58.677Z,8.69
2019-05-07T03:09:53.914Z,8.71
2019-05-07T03:10:53.049Z,8.56
2019-05-07T03:12:47.392Z,8.58
2019-05-07T03:13:47.381Z,8.55
2019-05-07T03:15:43.497Z,8.53
2019-05-07T03:16:47.548Z,8.64
2019-05-07T03:18:36.110Z,8.60
2019-05-07T03:19:36.091Z,8.61
2019-05-07T03:21:32.816Z,8.73
2019-05-07T03:22:33.500Z,8.76
2019-05-07T03:24:24.804Z,8.78
2019-05-07T03:25:24.819Z,8.74
2019-05-07T03:27:19.185Z,8.87
2019-05-07T03:28:19.159Z,8.76
2019-05-07T03:30:16.793Z,8.82
2019-05-07T03:31:16.839Z,8.79
2019-05-07T03:33:07.987Z,8.89
2019-05-07T03:34:07.868Z,8.79
2019-05-07T03:36:07.027Z,8.84
2019-05-07T03:37:06.094Z,8.71
2019-05-07T03:38:56.602Z,8.79
2019-05-07T03:39:56.530Z,8.85
2019-05-07T03:41:53.120Z,8.82
2019-05-07T03:42:53.464Z,8.73
2019-05-07T03:44:45.307Z,8.81
2019-05-07T03:45:45.238Z,8.84
2019-05-07T03:47:39.605Z,8.82
2019-05-07T03:48:39.591Z,8.92
2019-05-07T03:50:34.043Z,8.79
2019-05-07T03:51:33.951Z,8.84
2019-05-07T03:53:28.332Z,8.73
2019-05-07T03:54:28.300Z,8.82
2019-05-07T03:56:23.688Z,8.70
2019-05-07T03:57:23.776Z,8.73
2019-05-07T03:59:23.115Z,8.69
2019-05-07T04:00:23.862Z,8.70
2019-05-07T04:02:16.358Z,8.69
2019-05-07T04:03:19.355Z,8.73
2019-05-07T04:05:13.620Z,8.56
2019-05-07T04:06:12.755Z,8.60
2019-05-07T04:08:04.969Z,8.58
2019-05-07T04:09:04.952Z,8.60
2019-05-07T04:10:59.314Z,8.60
2019-05-07T04:11:59.300Z,8.60
2019-05-07T04:13:53.767Z,8.53
2019-05-07T04:14:53.866Z,8.63
2019-05-07T04:16:48.033Z,8.66
2019-05-07T04:17:48.022Z,8.70
2019-05-07T04:19:44.140Z,8.56
2019-05-07T04:20:43.604Z,8.52
2019-05-07T04:22:36.773Z,8.55
2019-05-07T04:23:36.725Z,8.61
2019-05-07T04:25:34.339Z,8.64
2019-05-07T04:26:33.934Z,8.73
2019-05-07T04:28:25.467Z,8.67
2019-05-07T04:29:25.415Z,8.71
2019-05-07T04:31:22.755Z,8.81
2019-05-07T04:32:19.777Z,8.74
2019-05-07T04:34:14.168Z,8.78
2019-05-07T04:35:14.125Z,8.84
2019-05-07T04:37:08.486Z,8.78
2019-05-07T04:38:08.474Z,8.79
2019-05-07T04:40:03.402Z,8.89
2019-05-07T04:41:03.766Z,8.89
2019-05-07T04:42:57.209Z,9.03
2019-05-07T04:43:57.190Z,8.99
2019-05-07T04:45:53.654Z,9.04
2019-05-07T04:46:53.306Z,9.04
2019-05-07T04:48:45.898Z,9.14
2019-05-07T04:49:45.885Z,9.13
2019-05-07T04:51:43.097Z,9.13
2019-05-07T04:52:43.364Z,9.19
2019-05-07T04:54:34.604Z,9.18
2019-05-07T04:55:34.592Z,9.18
2019-05-07T04:57:28.989Z,9.16
2019-05-07T04:58:28.945Z,9.23
2019-05-07T05:00:23.347Z,9.28
2019-05-07T05:01:23.655Z,9.36
2019-05-07T05:03:17.678Z,9.40
2019-05-07T05:04:26.904Z,9.32
2019-05-07T05:06:13.717Z,9.41
2019-05-07T05:07:13.357Z,9.34
2019-05-07T05:09:06.391Z,9.43
2019-05-07T05:10:06.367Z,9.29
2019-05-07T05:12:02.730Z,9.40
2019-05-07T05:13:03.173Z,9.37
2019-05-07T05:14:55.085Z,9.50
2019-05-07T05:15:55.080Z,9.48
2019-05-07T05:17:53.103Z,9.47
2019-05-07T05:18:51.613Z,9.59
2019-05-07T05:20:43.792Z,9.56
2019-05-07T05:21:43.782Z,9.66
2019-05-07T05:23:38.194Z,9.61
2019-05-07T05:24:38.138Z,9.59
2019-05-07T05:26:32.659Z,9.72
2019-05-07T05:27:32.707Z,9.73
2019-05-07T05:28:32.496Z,9.72
2019-05-07T05:29:32.472Z,9.72
2019-05-07T05:30:32.753Z,9.64
2019-05-07T05:31:33.117Z,9.73
2019-05-07T05:32:32.528Z,9.83
2019-05-07T05:33:32.524Z,9.69
2019-05-07T05:34:33.012Z,9.79
2019-05-07T05:35:32.425Z,9.84
2019-05-07T05:36:33.128Z,9.86
2019-05-07T05:37:32.411Z,9.92
2019-05-07T05:38:33.086Z,9.83
2019-05-07T05:39:32.394Z,9.95
2019-05-07T05:40:32.386Z,9.94
2019-05-07T05:41:34.157Z,9.92
2019-05-07T05:42:33.028Z,9.98
2019-05-07T05:43:32.363Z,9.99
2019-05-07T05:44:32.371Z,10.01
2019-05-07T05:45:33.454Z,10.09
2019-05-07T05:46:32.344Z,10.07
2019-05-07T05:47:32.980Z,10.17
2019-05-07T05:48:33.314Z,10.20
2019-05-07T05:49:32.424Z,10.33
2019-05-07T05:50:33.121Z,10.33
2019-05-07T05:51:32.386Z,10.33
2019-05-07T05:52:32.882Z,10.41
2019-05-07T05:53:32.820Z,10.44
2019-05-07T05:54:32.287Z,10.46
2019-05-07T05:55:32.291Z,10.44
2019-05-07T05:56:32.495Z,10.48
2019-05-07T05:57:32.402Z,10.42
2019-05-07T05:58:32.573Z,10.40
2019-05-07T05:59:47.460Z,10.37
2019-05-07T06:00:32.806Z,10.48
2019-05-07T06:01:32.265Z,10.44
2019-05-07T06:02:32.443Z,10.53
2019-05-07T06:03:32.390Z,10.48
2019-05-07T06:04:32.891Z,10.48
2019-05-07T06:05:34.264Z,10.49
2019-05-07T06:06:32.704Z,10.63
2019-05-07T06:07:32.187Z,10.72
2019-05-07T06:08:32.658Z,10.67
2019-05-07T06:09:32.828Z,10.67
2019-05-07T06:10:33.022Z,10.69
2019-05-07T06:11:32.272Z,10.74
2019-05-07T06:12:32.755Z,10.72
2019-05-07T06:13:32.407Z,10.71
2019-05-07T06:14:33.011Z,10.76
2019-05-07T06:15:32.748Z,10.74
2019-05-07T06:16:32.871Z,10.71
2019-05-07T06:17:32.249Z,10.69
2019-05-07T06:18:32.706Z,10.68
2019-05-07T06:19:32.796Z,10.64
2019-05-07T06:20:32.222Z,10.60
2019-05-07T06:21:32.351Z,10.57
2019-05-07T06:22:33.061Z,10.57
2019-05-07T06:23:33.076Z,10.61
2019-05-07T06:24:32.065Z,10.54
2019-05-07T06:25:33.452Z,10.57
2019-05-07T06:26:32.049Z,10.42
2019-05-07T06:27:33.778Z,10.40
2019-05-07T06:28:33.025Z,10.41
2019-05-07T06:29:33.003Z,10.40
2019-05-07T06:30:33.792Z,10.53
2019-05-07T06:31:32.711Z,10.41
2019-05-07T06:32:32.115Z,10.53
2019-05-07T06:33:32.501Z,10.64
2019-05-07T06:34:34.121Z,10.68
2019-05-07T06:35:32.532Z,10.76
2019-05-07T06:36:32.896Z,10.76
2019-05-07T06:37:32.189Z,10.86
2019-05-07T06:38:32.116Z,10.89
2019-05-07T06:39:32.791Z,10.90
2019-05-07T06:40:33.094Z,10.89
2019-05-07T06:41:32.301Z,10.94
2019-05-07T06:42:33.211Z,10.97
2019-05-07T06:43:32.540Z,11.00
2019-05-07T06:44:32.118Z,11.11
2019-05-07T06:45:35.136Z,11.10
2019-05-07T06:46:32.334Z,11.23
2019-05-07T06:47:32.034Z,11.25
2019-05-07T06:48:42.470Z,11.26
2019-05-07T06:49:32.508Z,11.32
2019-05-07T06:50:32.670Z,11.33
2019-05-07T06:51:32.868Z,11.32
2019-05-07T06:52:32.072Z,11.40
2019-05-07T06:53:33.431Z,11.45
2019-05-07T06:54:32.186Z,11.41
2019-05-07T06:55:32.523Z,11.47
2019-05-07T06:56:32.582Z,11.52
2019-05-07T06:57:32.990Z,11.60
2019-05-07T06:58:32.694Z,11.62
2019-05-07T06:59:34.270Z,11.55
2019-05-07T07:00:32.012Z,11.52
2019-05-07T07:01:32.441Z,11.59
2019-05-07T07:02:32.838Z,11.59
2019-05-07T07:03:32.792Z,11.57
2019-05-07T07:04:33.108Z,11.59
2019-05-07T07:05:33.018Z,11.51
2019-05-07T07:06:32.263Z,11.51
2019-05-07T07:07:36.534Z,11.48
2019-05-07T07:08:32.561Z,11.57
2019-05-07T07:09:32.934Z,11.66
2019-05-07T07:10:32.338Z,11.63
2019-05-07T07:11:32.043Z,11.65
2019-05-07T07:12:33.090Z,11.59
2019-05-07T07:13:32.271Z,11.65
2019-05-07T07:14:33.188Z,11.59
2019-05-07T07:15:32.157Z,11.57
2019-05-07T07:16:32.568Z,11.50
2019-05-07T07:17:32.608Z,11.54
2019-05-07T07:18:32.485Z,11.60
2019-05-07T07:19:33.135Z,11.62
2019-05-07T07:20:32.627Z,11.60
2019-05-07T07:21:32.688Z,11.60
2019-05-07T07:22:32.080Z,11.70
2019-05-07T07:23:32.372Z,11.86
2019-05-07T07:24:32.890Z,11.80
2019-05-07T07:25:32.623Z,11.84
2019-05-07T07:26:32.760Z,11.87
2019-05-07T07:27:32.281Z,11.84
2019-05-07T07:28:32.598Z,11.95
2019-05-07T07:29:32.418Z,11.95
2019-05-07T07:30:32.616Z,12.02
2019-05-07T07:31:31.985Z,12.04
2019-05-07T07:32:31.824Z,12.06
2019-05-07T07:33:32.065Z,12.09
2019-05-07T07:34:33.278Z,12.21
2019-05-07T07:35:32.176Z,12.12
2019-05-07T07:36:32.141Z,11.99
2019-05-07T07:37:32.089Z,12.07
2019-05-07T07:38:32.831Z,12.07
2019-05-07T07:39:32.284Z,12.10
2019-05-07T07:40:32.716Z,12.03
2019-05-07T07:41:32.677Z,12.06
2019-05-07T07:42:32.008Z,12.04
2019-05-07T07:43:32.519Z,12.06
2019-05-07T07:44:32.989Z,12.09
2019-05-07T07:45:32.418Z,12.04
2019-05-07T07:46:32.991Z,12.13
2019-05-07T07:47:32.947Z,12.28
2019-05-07T07:48:32.044Z,12.35
2019-05-07T07:49:32.976Z,12.32
2019-05-07T07:50:33.039Z,12.36
2019-05-07T07:51:40.659Z,12.36
2019-05-07T07:52:32.399Z,12.32
2019-05-07T07:53:35.127Z,12.36
2019-05-07T07:54:32.128Z,12.36
2019-05-07T07:55:33.014Z,12.39
2019-05-07T07:56:47.903Z,12.36
2019-05-07T07:57:32.456Z,12.36
2019-05-07T07:58:32.257Z,12.28
2019-05-07T07:59:32.887Z,12.20
2019-05-07T08:00:32.855Z,12.20
2019-05-07T08:01:33.012Z,12.24
2019-05-07T08:02:32.190Z,12.25
2019-05-07T08:03:32.941Z,12.17
2019-05-07T08:04:32.028Z,12.25
2019-05-07T08:05:32.547Z,12.22
2019-05-07T08:06:32.631Z,12.25
2019-05-07T08:07:33.068Z,12.21
2019-05-07T08:08:31.969Z,12.29
2019-05-07T08:09:32.440Z,12.20
2019-05-07T08:10:32.589Z,12.17
2019-05-07T08:11:31.930Z,12.18
2019-05-07T08:12:32.470Z,12.24
2019-05-07T08:13:32.444Z,12.32
2019-05-07T08:14:32.473Z,12.40
2019-05-07T08:15:33.076Z,12.36
2019-05-07T08:16:32.804Z,12.45
2019-05-07T08:17:32.675Z,12.43
2019-05-07T08:18:32.813Z,12.45
2019-05-07T08:19:32.827Z,12.47
2019-05-07T08:20:32.689Z,12.55
2019-05-07T08:21:33.208Z,12.65
2019-05-07T08:22:32.962Z,12.72
2019-05-07T08:23:31.928Z,12.87
2019-05-07T08:24:32.093Z,13.01
2019-05-07T08:25:32.147Z,13.13
2019-05-07T08:26:32.352Z,13.27
2019-05-07T08:27:32.553Z,13.18
2019-05-07T08:28:32.065Z,13.33
2019-05-07T08:29:32.619Z,13.33
2019-05-07T08:30:32.698Z,13.39
2019-05-07T08:31:32.051Z,13.42
2019-05-07T08:32:32.680Z,13.25
2019-05-07T08:33:32.236Z,13.28
2019-05-07T08:34:32.489Z,13.22
2019-05-07T08:35:32.683Z,13.20
2019-05-07T08:36:33.147Z,13.18
2019-05-07T08:37:32.078Z,13.23
2019-05-07T08:38:32.751Z,13.16
2019-05-07T08:39:32.550Z,13.22
2019-05-07T08:40:32.548Z,13.19
2019-05-07T08:41:31.960Z,13.05
2019-05-07T08:42:32.034Z,13.08
2019-05-07T08:43:32.217Z,13.01
2019-05-07T08:44:32.523Z,13.03
2019-05-07T08:45:32.612Z,13.04
2019-05-07T08:46:32.831Z,13.01
2019-05-07T08:47:31.919Z,12.91
2019-05-07T08:48:32.052Z,12.79
2019-05-07T08:49:36.788Z,12.80
2019-05-07T08:50:32.666Z,12.80
2019-05-07T08:51:32.694Z,12.86
2019-05-07T08:52:32.707Z,12.90
2019-05-07T08:53:32.783Z,12.86
2019-05-07T08:54:32.094Z,12.79
2019-05-07T08:55:32.199Z,12.68
2019-05-07T08:56:31.865Z,12.65
2019-05-07T08:57:31.883Z,12.61
2019-05-07T08:58:31.722Z,12.47
2019-05-07T08:59:31.919Z,12.47
2019-05-07T09:00:32.616Z,12.47
2019-05-07T09:01:32.536Z,12.49
2019-05-07T09:02:32.612Z,12.55
2019-05-07T09:03:32.394Z,12.60
2019-05-07T09:04:32.638Z,12.64
2019-05-07T09:05:32.399Z,12.60
2019-05-07T09:06:32.266Z,12.61
2019-05-07T09:07:32.168Z,12.60
2019-05-07T09:08:32.137Z,12.73
2019-05-07T09:09:32.360Z,12.86
2019-05-07T09:10:32.502Z,12.93
2019-05-07T09:11:32.072Z,12.97
2019-05-07T09:12:31.825Z,13.13
2019-05-07T09:13:32.949Z,13.16
2019-05-07T09:14:32.018Z,12.95
2019-05-07T09:15:32.021Z,13.08
2019-05-07T09:16:31.955Z,13.01
2019-05-07T09:17:31.832Z,13.03
2019-05-07T09:18:32.236Z,12.98
2019-05-07T09:19:32.186Z,12.98
2019-05-07T09:20:32.177Z,13.11
2019-05-07T09:21:32.150Z,13.12
2019-05-07T09:22:32.358Z,13.16
2019-05-07T09:23:31.852Z,13.27
2019-05-07T09:24:33.369Z,13.38
2019-05-07T09:25:32.484Z,13.42
2019-05-07T09:26:32.345Z,13.57
2019-05-07T09:27:32.751Z,13.65
2019-05-07T09:28:32.652Z,13.65
2019-05-07T09:29:32.347Z,13.75
2019-05-07T09:30:32.669Z,13.83
2019-05-07T09:31:32.231Z,13.96
2019-05-07T09:32:32.685Z,13.92
2019-05-07T09:33:32.063Z,14.04
2019-05-07T09:34:32.707Z,14.10
2019-05-07T09:35:32.059Z,14.23
2019-05-07T09:36:32.247Z,14.23
2019-05-07T09:37:32.648Z,14.35
2019-05-07T09:38:32.756Z,14.47
2019-05-07T09:39:32.403Z,14.50
2019-05-07T09:40:32.017Z,14.58
2019-05-07T09:41:32.756Z,14.66
2019-05-07T09:42:32.951Z,14.62
2019-05-07T09:43:32.496Z,14.79
2019-05-07T09:44:32.506Z,14.84
2019-05-07T09:45:32.841Z,14.86
2019-05-07T09:46:32.588Z,14.82
2019-05-07T09:47:32.499Z,14.99
2019-05-07T09:48:31.066Z,15.04
2019-05-07T09:49:32.678Z,15.06
2019-05-07T09:50:32.556Z,14.94
2019-05-07T09:51:32.178Z,14.85
2019-05-07T09:52:32.071Z,14.79
2019-05-07T09:53:32.147Z,14.70
2019-05-07T09:54:32.308Z,14.62
2019-05-07T09:55:32.508Z,14.68
2019-05-07T09:56:31.999Z,14.73
2019-05-07T09:57:33.971Z,14.68
2019-05-07T09:58:36.509Z,14.79
2019-05-07T09:59:32.478Z,14.84
2019-05-07T10:00:32.036Z,14.91
2019-05-07T10:01:31.947Z,14.94
2019-05-07T10:02:32.085Z,14.86
2019-05-07T10:03:32.388Z,15.03
2019-05-07T10:04:32.711Z,14.96
2019-05-07T10:05:32.156Z,15.02
2019-05-07T10:06:32.065Z,14.91
2019-05-07T10:07:32.482Z,14.73
2019-05-07T10:08:31.807Z,14.59
2019-05-07T10:09:32.713Z,14.41
2019-05-07T10:10:32.716Z,14.20
2019-05-07T10:11:32.938Z,14.08
2019-05-07T10:12:32.825Z,13.96
2019-05-07T10:13:32.867Z,13.83
2019-05-07T10:14:32.972Z,13.65
2019-05-07T10:15:32.941Z,13.57
2019-05-07T10:16:30.830Z,13.57
2019-05-07T10:17:32.624Z,13.52
2019-05-07T10:18:32.053Z,13.59
2019-05-07T10:19:32.475Z,13.60
2019-05-07T10:20:32.724Z,13.52
2019-05-07T10:21:30.809Z,13.65
2019-05-07T10:22:32.163Z,13.59
2019-05-07T10:23:30.805Z,13.65
2019-05-07T10:24:30.797Z,13.75
2019-05-07T10:25:32.708Z,13.81
2019-05-07T10:26:32.123Z,13.92
2019-05-07T10:27:32.482Z,14.03
2019-05-07T10:28:32.115Z,14.28
2019-05-07T10:29:32.266Z,14.44
2019-05-07T10:30:32.128Z,14.51
2019-05-07T10:31:32.047Z,14.62
2019-05-07T10:32:32.219Z,14.78
2019-05-07T10:33:31.978Z,15.14
2019-05-07T10:34:30.759Z,15.75
2019-05-07T10:35:33.556Z,16.46
2019-05-07T10:36:32.083Z,17.23
2019-05-07T10:37:31.856Z,17.78
2019-05-07T10:38:30.772Z,18.47
2019-05-07T10:39:32.568Z,18.70
2019-05-07T10:40:32.609Z,18.65
2019-05-07T10:41:31.904Z,18.56
2019-05-07T10:42:32.366Z,18.23
2019-05-07T10:43:32.719Z,17.98
2019-05-07T10:44:32.148Z,18.26
2019-05-07T10:45:32.284Z,18.89
2019-05-07T10:46:31.935Z,19.27
2019-05-07T10:47:30.734Z,19.89
2019-05-07T10:48:32.017Z,20.07
2019-05-07T10:49:31.792Z,20.69
2019-05-07T10:50:38.755Z,21.09
2019-05-07T10:51:32.184Z,20.67
2019-05-07T10:52:31.906Z,20.32
2019-05-07T10:53:32.072Z,19.99
2019-05-07T10:54:30.740Z,19.94
2019-05-07T10:55:32.603Z,19.66
2019-05-07T10:56:32.495Z,19.85
2019-05-07T10:57:32.780Z,20.06
2019-05-07T10:58:32.030Z,20.19
2019-05-07T10:59:30.770Z,20.39
2019-05-07T11:00:32.927Z,20.34
2019-05-07T11:01:32.756Z,20.84
2019-05-07T11:02:32.472Z,21.18
2019-05-07T11:03:32.466Z,21.29
2019-05-07T11:04:40.320Z,21.00
2019-05-07T11:05:32.679Z,20.88
2019-05-07T11:06:32.358Z,21.18
2019-05-07T11:07:32.697Z,21.62
2019-05-07T11:08:32.732Z,22.08
2019-05-07T11:09:32.667Z,22.13
2019-05-07T11:10:32.630Z,22.32
2019-05-07T11:11:31.912Z,22.70
2019-05-07T11:12:31.977Z,22.98
2019-05-07T11:13:30.789Z,22.78
2019-05-07T11:14:32.130Z,22.18
2019-05-07T11:15:32.743Z,21.54
2019-05-07T11:16:32.429Z,21.22
2019-05-07T11:17:32.676Z,21.02
2019-05-07T11:18:32.315Z,20.72
2019-05-07T11:19:32.437Z,20.44
2019-05-07T11:20:32.073Z,20.22
2019-05-07T11:21:32.964Z,20.72
2019-05-07T11:22:32.742Z,20.92
2019-05-07T11:23:32.767Z,21.27
2019-05-07T11:24:32.109Z,21.21
2019-05-07T11:25:30.820Z,21.15
2019-05-07T11:26:32.831Z,21.35
2019-05-07T11:27:32.883Z,21.88
2019-05-07T11:28:32.317Z,21.89
2019-05-07T11:29:33.077Z,21.67
2019-05-07T11:30:32.050Z,21.27
2019-05-07T11:31:32.971Z,21.05
2019-05-07T11:32:32.118Z,20.75
2019-05-07T11:33:32.628Z,21.25
2019-05-07T11:34:32.761Z,21.85
2019-05-07T11:35:31.914Z,22.20
2019-05-07T11:36:32.032Z,22.66
2019-05-07T11:37:30.849Z,22.53
2019-05-07T11:38:33.161Z,22.04
2019-05-07T11:39:33.083Z,21.91
2019-05-07T11:40:32.163Z,21.70
2019-05-07T11:41:32.094Z,21.45
2019-05-07T11:42:31.290Z,21.18
2019-05-07T11:43:32.608Z,21.18
2019-05-07T11:44:32.069Z,21.15
2019-05-07T11:45:32.108Z,20.88
2019-05-07T11:46:32.805Z,20.58
2019-05-07T11:47:31.854Z,20.32
2019-05-07T11:48:33.543Z,20.11
2019-05-07T11:49:32.770Z,19.96
2019-05-07T11:50:32.839Z,19.76
2019-05-07T11:51:32.904Z,19.55
2019-05-07T11:52:35.244Z,19.51
2019-05-07T11:53:32.674Z,19.45
2019-05-07T11:54:31.809Z,19.44
2019-05-07T11:55:31.835Z,19.36
2019-05-07T11:56:32.771Z,19.31
2019-05-07T11:57:30.902Z,19.21
2019-05-07T11:58:32.542Z,19.14
2019-05-07T11:59:32.604Z,19.07
2019-05-07T12:00:32.309Z,18.75
2019-05-07T12:01:43.571Z,18.73
2019-05-07T12:02:32.050Z,18.71
2019-05-07T12:03:32.455Z,18.71
2019-05-07T12:04:32.004Z,18.59
2019-05-07T12:05:33.035Z,18.68
2019-05-07T12:06:32.186Z,18.53
2019-05-07T12:07:32.755Z,18.43
2019-05-07T12:08:43.069Z,18.41
2019-05-07T12:09:33.084Z,18.35
2019-05-07T12:10:32.789Z,18.37
2019-05-07T12:11:32.220Z,18.11
2019-05-07T12:12:32.560Z,17.87
2019-05-07T12:13:32.329Z,17.59
2019-05-07T12:14:32.504Z,17.64
2019-05-07T12:15:32.431Z,17.49
2019-05-07T12:16:32.031Z,17.38
2019-05-07T12:17:31.674Z,17.36
2019-05-07T12:18:31.910Z,17.39
2019-05-07T12:19:32.920Z,17.29
2019-05-07T12:20:32.400Z,17.36
2019-05-07T12:21:30.901Z,17.31
2019-05-07T12:22:30.902Z,17.24
2019-05-07T12:23:33.062Z,17.27
2019-05-07T12:24:32.809Z,17.20
2019-05-07T12:25:32.056Z,17.30
2019-05-07T12:26:30.902Z,17.20
2019-05-07T12:27:32.327Z,17.19
2019-05-07T12:28:32.863Z,17.15
2019-05-07T12:29:32.240Z,17.02
2019-05-07T12:30:32.646Z,17.09
2019-05-07T12:31:30.887Z,16.99
2019-05-07T12:32:32.347Z,17.04
2019-05-07T12:33:32.483Z,17.19
2019-05-07T12:34:31.890Z,17.19
2019-05-07T12:35:30.993Z,17.30
2019-05-07T12:36:32.090Z,17.34
2019-05-07T12:37:32.003Z,17.27
2019-05-07T12:38:32.357Z,17.38
2019-05-07T12:39:31.894Z,17.46
2019-05-07T12:40:32.517Z,17.52
2019-05-07T12:41:33.223Z,17.52
2019-05-07T12:42:32.661Z,17.52
2019-05-07T12:43:31.903Z,17.54
2019-05-07T12:44:31.977Z,17.59
2019-05-07T12:45:30.932Z,17.51
2019-05-07T12:46:33.137Z,17.41
2019-05-07T12:47:30.874Z,17.24
2019-05-07T12:48:30.921Z,17.16
2019-05-07T12:49:32.471Z,17.16
2019-05-07T12:50:32.301Z,17.11
2019-05-07T12:51:36.932Z,17.06
2019-05-07T12:52:32.064Z,17.01
2019-05-07T12:53:31.942Z,17.01
2019-05-07T12:54:32.759Z,17.06
2019-05-07T12:55:32.372Z,16.99
2019-05-07T12:56:32.052Z,16.87
2019-05-07T12:57:30.893Z,16.87
2019-05-07T12:58:32.317Z,16.71
2019-05-07T12:59:32.234Z,16.71
2019-05-07T13:00:32.300Z,16.66
2019-05-07T13:01:32.801Z,16.69
2019-05-07T13:02:38.196Z,16.64
2019-05-07T13:03:32.336Z,16.66
2019-05-07T13:04:32.508Z,16.66
2019-05-07T13:05:30.845Z,16.68
2019-05-07T13:06:32.548Z,16.56
2019-05-07T13:07:32.521Z,16.49
2019-05-07T13:08:32.742Z,16.42
2019-05-07T13:09:32.509Z,16.29
2019-05-07T13:10:32.497Z,16.23
2019-05-07T13:11:32.563Z,16.29
2019-05-07T13:12:32.216Z,16.26
2019-05-07T13:13:32.064Z,16.21
2019-05-07T13:14:30.818Z,16.20
2019-05-07T13:15:32.533Z,16.15
2019-05-07T13:16:32.371Z,16.15
2019-05-07T13:17:30.834Z,16.05
2019-05-07T13:18:30.809Z,16.01
2019-05-07T13:19:32.902Z,15.95
2019-05-07T13:20:32.042Z,15.91
2019-05-07T13:21:31.987Z,16.04
2019-05-07T13:22:32.574Z,16.02
2019-05-07T13:23:31.805Z,16.02
2019-05-07T13:24:32.072Z,16.01
2019-05-07T13:25:32.406Z,16.10
2019-05-07T13:26:32.189Z,16.12
2019-05-07T13:27:31.994Z,16.05
2019-05-07T13:28:30.781Z,16.09
2019-05-07T13:29:32.604Z,16.02
2019-05-07T13:30:30.781Z,15.95
2019-05-07T13:31:32.606Z,15.86
2019-05-07T13:32:32.026Z,15.76
2019-05-07T13:33:31.660Z,15.83
2019-05-07T13:34:33.807Z,15.72
2019-05-07T13:35:30.797Z,15.68
2019-05-07T13:36:32.430Z,15.73
2019-05-07T13:37:32.534Z,15.61
2019-05-07T13:38:32.331Z,15.58
2019-05-07T13:39:32.531Z,15.40
2019-05-07T13:40:31.538Z,15.36
2019-05-07T13:41:31.876Z,15.33
2019-05-07T13:42:31.947Z,15.33
2019-05-07T13:43:30.740Z,15.33
2019-05-07T13:44:31.892Z,15.25
2019-05-07T13:45:31.760Z,15.24
2019-05-07T13:46:30.763Z,15.24
2019-05-07T13:47:30.751Z,15.27
2019-05-07T13:48:31.724Z,15.31
2019-05-07T13:49:32.313Z,15.28
2019-05-07T13:50:32.556Z,15.27
2019-05-07T13:51:31.664Z,15.33
2019-05-07T13:52:32.756Z,15.35
2019-05-07T13:53:32.254Z,15.47
2019-05-07T13:54:32.442Z,15.55
2019-05-07T13:55:32.385Z,15.61
2019-05-07T13:56:32.584Z,15.58
2019-05-07T13:57:32.236Z,15.64
2019-05-07T13:58:32.931Z,15.64
2019-05-07T13:59:31.738Z,15.62
2019-05-07T14:00:32.484Z,15.57
2019-05-07T14:01:32.651Z,15.62
2019-05-07T14:02:31.781Z,15.70
2019-05-07T14:03:32.900Z,15.59
2019-05-07T14:04:32.555Z,15.62
2019-05-07T14:05:32.380Z,15.68
2019-05-07T14:06:32.505Z,15.70
2019-05-07T14:07:32.249Z,15.79
2019-05-07T14:08:32.047Z,15.76
2019-05-07T14:09:32.468Z,15.76
2019-05-07T14:10:32.091Z,15.75
2019-05-07T14:11:32.245Z,15.72
2019-05-07T14:12:33.444Z,15.76
2019-05-07T14:13:30.653Z,15.75
2019-05-07T14:14:34.202Z,15.73
2019-05-07T14:15:32.044Z,15.62
2019-05-07T14:16:30.638Z,15.57
2019-05-07T14:17:30.637Z,15.46
2019-05-07T14:18:32.565Z,15.40
2019-05-07T14:19:32.576Z,15.44
2019-05-07T14:20:32.662Z,15.40
2019-05-07T14:21:32.503Z,15.33
2019-05-07T14:22:31.884Z,15.49
2019-05-07T14:23:32.488Z,15.40
2019-05-07T14:24:32.658Z,15.40
2019-05-07T14:25:32.436Z,15.43
2019-05-07T14:26:32.455Z,15.40
2019-05-07T14:27:32.136Z,15.57
2019-05-07T14:28:32.633Z,15.51
2019-05-07T14:29:32.075Z,15.62
2019-05-07T14:30:32.326Z,15.59
2019-05-07T14:31:33.488Z,15.75
2019-05-07T14:32:30.588Z,15.79
2019-05-07T14:33:30.595Z,15.79
2019-05-07T14:34:32.723Z,15.83
2019-05-07T14:35:32.191Z,15.91
2019-05-07T14:36:31.993Z,15.79
2019-05-07T14:37:32.358Z,15.84
2019-05-07T14:38:32.056Z,15.82
2019-05-07T14:39:32.643Z,15.84
2019-05-07T14:40:32.328Z,15.65
2019-05-07T14:41:32.552Z,15.72
2019-05-07T14:42:32.720Z,15.75